sensor_id;sensor_type;location;lat;lon;timestamp;temperature;humidity
46676;DHT22;32412;51.478;5.694;2022-09-29T00:00:47;6.50;99.90
46676;DHT22;32412;51.478;5.694;2022-09-29T00:03:13;6.50;99.90
46676;DHT22;32412;51.478;5.694;2022-09-29T00:05:44;6.40;99.90
46676;DHT22;32412;51.478;5.694;2022-09-29T00:08:10;6.30;99.90
46676;DHT22;32412;51.478;5.694;2022-09-29T00:10:39;6.30;99.90
46676;DHT22;32412;51.478;5.694;2022-09-29T00:13:04;6.30;99.90
46676;DHT22;32412;51.478;5.694;2022-09-29T00:15:30;6.30;99.90
46676;DHT22;32412;51.478;5.694;2022-09-29T00:17:56;6.20;99.90
46676;DHT22;32412;51.478;5.694;2022-09-29T00:20:21;6.10;99.90
46676;DHT22;32412;51.478;5.694;2022-09-29T00:22:50;5.90;99.90
46676;DHT22;32412;51.478;5.694;2022-09-29T00:25:17;6.00;99.90
46676;DHT22;32412;51.478;5.694;2022-09-29T00:27:43;6.00;99.90
46676;DHT22;32412;51.478;5.694;2022-09-29T00:30:09;6.00;99.90
46676;DHT22;32412;51.478;5.694;2022-09-29T00:32:35;6.00;99.90
46676;DHT22;32412;51.478;5.694;2022-09-29T00:35:01;6.00;99.90
46676;DHT22;32412;51.478;5.694;2022-09-29T00:37:26;6.00;99.90
46676;DHT22;32412;51.478;5.694;2022-09-29T00:39:52;5.90;99.90
46676;DHT22;32412;51.478;5.694;2022-09-29T00:42:19;5.80;99.90
46676;DHT22;32412;51.478;5.694;2022-09-29T00:44:57;5.80;99.90
46676;DHT22;32412;51.478;5.694;2022-09-29T00:47:25;5.70;99.90
46676;DHT22;32412;51.478;5.694;2022-09-29T00:50:00;5.70;99.90
46676;DHT22;32412;51.478;5.694;2022-09-29T00:52:40;5.70;99.90
46676;DHT22;32412;51.478;5.694;2022-09-29T00:55:36;5.70;99.90
46676;DHT22;32412;51.478;5.694;2022-09-29T01:00:41;5.60;99.90
46676;DHT22;32412;51.478;5.694;2022-09-29T01:03:11;5.60;99.90
46676;DHT22;32412;51.478;5.694;2022-09-29T01:05:43;5.70;99.90
46676;DHT22;32412;51.478;5.694;2022-09-29T01:08:22;5.60;99.90
46676;DHT22;32412;51.478;5.694;2022-09-29T01:10:50;5.70;99.90
46676;DHT22;32412;51.478;5.694;2022-09-29T01:13:17;5.70;99.90
46676;DHT22;32412;51.478;5.694;2022-09-29T01:15:43;5.70;99.90
46676;DHT22;32412;51.478;5.694;2022-09-29T01:18:09;5.60;99.90
46676;DHT22;32412;51.478;5.694;2022-09-29T01:20:45;5.50;99.90
46676;DHT22;32412;51.478;5.694;2022-09-29T01:23:42;5.50;99.90
46676;DHT22;32412;51.478;5.694;2022-09-29T01:29:11;5.50;99.90
46676;DHT22;32412;51.478;5.694;2022-09-29T01:31:56;5.50;99.90
46676;DHT22;32412;51.478;5.694;2022-09-29T01:37:04;5.50;99.90
46676;DHT22;32412;51.478;5.694;2022-09-29T01:42:54;5.40;99.90
46676;DHT22;32412;51.478;5.694;2022-09-29T01:45:32;5.40;99.90
46676;DHT22;32412;51.478;5.694;2022-09-29T01:48:08;5.50;99.90
46676;DHT22;32412;51.478;5.694;2022-09-29T01:50:49;5.40;99.90
46676;DHT22;32412;51.478;5.694;2022-09-29T01:53:34;5.40;99.90
46676;DHT22;32412;51.478;5.694;2022-09-29T01:56:06;5.40;99.90
46676;DHT22;32412;51.478;5.694;2022-09-29T01:58:48;5.50;99.90
46676;DHT22;32412;51.478;5.694;2022-09-29T02:01:17;5.50;99.90
46676;DHT22;32412;51.478;5.694;2022-09-29T02:03:53;5.50;99.90
46676;DHT22;32412;51.478;5.694;2022-09-29T02:06:30;5.40;99.90
46676;DHT22;32412;51.478;5.694;2022-09-29T02:08:59;5.50;99.90
46676;DHT22;32412;51.478;5.694;2022-09-29T02:11:29;5.40;99.90
46676;DHT22;32412;51.478;5.694;2022-09-29T02:13:58;5.40;99.90
46676;DHT22;32412;51.478;5.694;2022-09-29T02:16:28;5.30;99.90
46676;DHT22;32412;51.478;5.694;2022-09-29T02:18:55;5.30;99.90
46676;DHT22;32412;51.478;5.694;2022-09-29T02:21:22;5.30;99.90
46676;DHT22;32412;51.478;5.694;2022-09-29T02:23:50;5.30;99.90
46676;DHT22;32412;51.478;5.694;2022-09-29T02:26:16;5.30;99.90
46676;DHT22;32412;51.478;5.694;2022-09-29T02:28:43;5.20;99.90
46676;DHT22;32412;51.478;5.694;2022-09-29T02:31:09;5.20;99.90
46676;DHT22;32412;51.478;5.694;2022-09-29T02:33:35;5.20;99.90
46676;DHT22;32412;51.478;5.694;2022-09-29T02:39:01;5.10;99.90
46676;DHT22;32412;51.478;5.694;2022-09-29T02:55:19;5.00;99.90
46676;DHT22;32412;51.478;5.694;2022-09-29T02:58:17;5.00;99.90
46676;DHT22;32412;51.478;5.694;2022-09-29T03:00:44;4.90;99.90
46676;DHT22;32412;51.478;5.694;2022-09-29T03:03:10;4.90;99.90
46676;DHT22;32412;51.478;5.694;2022-09-29T03:05:35;4.90;99.90
46676;DHT22;32412;51.478;5.694;2022-09-29T03:08:01;4.90;99.90
46676;DHT22;32412;51.478;5.694;2022-09-29T03:10:27;4.90;99.90
46676;DHT22;32412;51.478;5.694;2022-09-29T03:12:52;4.90;99.90
46676;DHT22;32412;51.478;5.694;2022-09-29T03:15:18;4.90;99.90
46676;DHT22;32412;51.478;5.694;2022-09-29T03:17:44;4.90;99.90
46676;DHT22;32412;51.478;5.694;2022-09-29T03:20:10;4.90;99.90
46676;DHT22;32412;51.478;5.694;2022-09-29T03:22:36;4.90;99.90
46676;DHT22;32412;51.478;5.694;2022-09-29T03:25:03;4.90;99.90
46676;DHT22;32412;51.478;5.694;2022-09-29T03:27:31;4.90;99.90
46676;DHT22;32412;51.478;5.694;2022-09-29T03:29:56;4.90;99.90
46676;DHT22;32412;51.478;5.694;2022-09-29T03:32:22;4.90;99.90
46676;DHT22;32412;51.478;5.694;2022-09-29T03:34:47;5.00;99.90
46676;DHT22;32412;51.478;5.694;2022-09-29T03:37:13;4.90;99.90
46676;DHT22;32412;51.478;5.694;2022-09-29T03:39:39;5.00;99.90
46676;DHT22;32412;51.478;5.694;2022-09-29T03:42:05;4.90;99.90
46676;DHT22;32412;51.478;5.694;2022-09-29T03:44:30;4.90;99.90
46676;DHT22;32412;51.478;5.694;2022-09-29T03:46:56;4.90;99.90
46676;DHT22;32412;51.478;5.694;2022-09-29T03:49:22;4.90;99.90
46676;DHT22;32412;51.478;5.694;2022-09-29T03:51:47;4.90;99.90
46676;DHT22;32412;51.478;5.694;2022-09-29T03:54:13;4.90;99.90
46676;DHT22;32412;51.478;5.694;2022-09-29T03:56:38;4.90;99.90
46676;DHT22;32412;51.478;5.694;2022-09-29T03:59:05;4.80;99.90
46676;DHT22;32412;51.478;5.694;2022-09-29T04:01:33;4.80;99.90
46676;DHT22;32412;51.478;5.694;2022-09-29T04:03:59;4.70;99.90
46676;DHT22;32412;51.478;5.694;2022-09-29T04:06:24;4.70;99.90
46676;DHT22;32412;51.478;5.694;2022-09-29T04:08:50;4.70;99.90
46676;DHT22;32412;51.478;5.694;2022-09-29T04:11:16;4.70;99.90
46676;DHT22;32412;51.478;5.694;2022-09-29T04:13:42;4.70;99.90
46676;DHT22;32412;51.478;5.694;2022-09-29T04:16:07;4.70;99.90
46676;DHT22;32412;51.478;5.694;2022-09-29T04:18:34;4.60;99.90
46676;DHT22;32412;51.478;5.694;2022-09-29T04:21:05;4.70;99.90
46676;DHT22;32412;51.478;5.694;2022-09-29T04:23:30;4.60;99.90
46676;DHT22;32412;51.478;5.694;2022-09-29T04:25:56;4.60;99.90
46676;DHT22;32412;51.478;5.694;2022-09-29T04:28:22;4.60;99.90
46676;DHT22;32412;51.478;5.694;2022-09-29T04:30:48;4.60;99.90
46676;DHT22;32412;51.478;5.694;2022-09-29T04:33:14;4.60;99.90
46676;DHT22;32412;51.478;5.694;2022-09-29T04:35:39;4.60;99.90
46676;DHT22;32412;51.478;5.694;2022-09-29T04:38:05;4.60;99.90
46676;DHT22;32412;51.478;5.694;2022-09-29T04:40:33;4.60;99.90
46676;DHT22;32412;51.478;5.694;2022-09-29T04:42:59;4.60;99.90
46676;DHT22;32412;51.478;5.694;2022-09-29T04:45:24;4.60;99.90
46676;DHT22;32412;51.478;5.694;2022-09-29T04:47:50;4.50;99.90
46676;DHT22;32412;51.478;5.694;2022-09-29T04:50:15;4.40;99.90
46676;DHT22;32412;51.478;5.694;2022-09-29T04:52:42;4.30;99.90
46676;DHT22;32412;51.478;5.694;2022-09-29T04:55:08;4.30;99.90
46676;DHT22;32412;51.478;5.694;2022-09-29T04:57:36;4.30;99.90
46676;DHT22;32412;51.478;5.694;2022-09-29T05:00:03;4.30;99.90
46676;DHT22;32412;51.478;5.694;2022-09-29T05:02:30;4.30;99.90
46676;DHT22;32412;51.478;5.694;2022-09-29T05:04:56;4.30;99.90
46676;DHT22;32412;51.478;5.694;2022-09-29T05:07:21;4.30;99.90
46676;DHT22;32412;51.478;5.694;2022-09-29T05:09:47;4.30;99.90
46676;DHT22;32412;51.478;5.694;2022-09-29T05:12:13;4.30;99.90
46676;DHT22;32412;51.478;5.694;2022-09-29T05:14:39;4.40;99.90
46676;DHT22;32412;51.478;5.694;2022-09-29T05:17:04;4.40;99.90
46676;DHT22;32412;51.478;5.694;2022-09-29T05:19:30;4.30;99.90
46676;DHT22;32412;51.478;5.694;2022-09-29T05:21:57;4.30;99.90
46676;DHT22;32412;51.478;5.694;2022-09-29T05:24:23;4.30;99.90
46676;DHT22;32412;51.478;5.694;2022-09-29T05:26:49;4.20;99.90
46676;DHT22;32412;51.478;5.694;2022-09-29T05:29:15;4.30;99.90
46676;DHT22;32412;51.478;5.694;2022-09-29T05:31:41;4.20;99.90
46676;DHT22;32412;51.478;5.694;2022-09-29T05:34:07;4.20;99.90
46676;DHT22;32412;51.478;5.694;2022-09-29T05:36:32;4.10;99.90
46676;DHT22;32412;51.478;5.694;2022-09-29T05:38:58;4.10;99.90
46676;DHT22;32412;51.478;5.694;2022-09-29T05:41:24;4.10;99.90
46676;DHT22;32412;51.478;5.694;2022-09-29T05:43:51;4.20;99.90
46676;DHT22;32412;51.478;5.694;2022-09-29T05:46:18;4.20;99.90
46676;DHT22;32412;51.478;5.694;2022-09-29T05:48:48;4.20;99.90
46676;DHT22;32412;51.478;5.694;2022-09-29T05:51:17;4.20;99.90
46676;DHT22;32412;51.478;5.694;2022-09-29T05:53:43;4.20;99.90
46676;DHT22;32412;51.478;5.694;2022-09-29T05:56:11;4.20;99.90
46676;DHT22;32412;51.478;5.694;2022-09-29T05:58:38;4.10;99.90
46676;DHT22;32412;51.478;5.694;2022-09-29T06:01:08;4.10;99.90
46676;DHT22;32412;51.478;5.694;2022-09-29T06:03:34;4.20;99.90
46676;DHT22;32412;51.478;5.694;2022-09-29T06:06:08;4.20;99.90
46676;DHT22;32412;51.478;5.694;2022-09-29T06:08:34;4.30;99.90
46676;DHT22;32412;51.478;5.694;2022-09-29T06:11:21;4.40;99.90
46676;DHT22;32412;51.478;5.694;2022-09-29T06:13:49;4.50;99.90
46676;DHT22;32412;51.478;5.694;2022-09-29T06:16:16;4.60;99.90
46676;DHT22;32412;51.478;5.694;2022-09-29T06:18:46;4.70;99.90
46676;DHT22;32412;51.478;5.694;2022-09-29T06:21:17;4.70;99.90
46676;DHT22;32412;51.478;5.694;2022-09-29T06:23:50;4.80;99.90
46676;DHT22;32412;51.478;5.694;2022-09-29T06:26:18;4.90;99.90
46676;DHT22;32412;51.478;5.694;2022-09-29T06:28:44;5.10;99.90
46676;DHT22;32412;51.478;5.694;2022-09-29T06:31:21;5.20;99.90
46676;DHT22;32412;51.478;5.694;2022-09-29T06:33:47;5.20;99.90
46676;DHT22;32412;51.478;5.694;2022-09-29T06:36:20;5.40;99.90
46676;DHT22;32412;51.478;5.694;2022-09-29T06:39:06;5.40;99.90
46676;DHT22;32412;51.478;5.694;2022-09-29T06:41:33;5.60;99.90
46676;DHT22;32412;51.478;5.694;2022-09-29T06:44:00;5.50;99.90
46676;DHT22;32412;51.478;5.694;2022-09-29T06:46:27;5.70;99.90
46676;DHT22;32412;51.478;5.694;2022-09-29T06:48:54;5.70;99.90
46676;DHT22;32412;51.478;5.694;2022-09-29T06:51:23;5.80;99.90
46676;DHT22;32412;51.478;5.694;2022-09-29T06:54:06;6.00;99.90
46676;DHT22;32412;51.478;5.694;2022-09-29T06:56:32;6.10;99.90
46676;DHT22;32412;51.478;5.694;2022-09-29T06:58:57;6.10;99.90
46676;DHT22;32412;51.478;5.694;2022-09-29T07:01:23;6.20;99.90
46676;DHT22;32412;51.478;5.694;2022-09-29T07:03:49;6.40;99.90
46676;DHT22;32412;51.478;5.694;2022-09-29T07:06:14;6.40;99.90
46676;DHT22;32412;51.478;5.694;2022-09-29T07:08:40;6.60;99.90
46676;DHT22;32412;51.478;5.694;2022-09-29T07:11:09;6.70;99.90
46676;DHT22;32412;51.478;5.694;2022-09-29T07:13:35;6.80;99.90
46676;DHT22;32412;51.478;5.694;2022-09-29T07:16:14;7.00;99.90
46676;DHT22;32412;51.478;5.694;2022-09-29T07:18:50;7.10;99.90
46676;DHT22;32412;51.478;5.694;2022-09-29T07:21:16;7.20;99.90
46676;DHT22;32412;51.478;5.694;2022-09-29T07:23:43;7.30;99.90
46676;DHT22;32412;51.478;5.694;2022-09-29T07:26:10;7.40;99.90
46676;DHT22;32412;51.478;5.694;2022-09-29T07:28:36;7.50;99.90
46676;DHT22;32412;51.478;5.694;2022-09-29T07:31:04;7.70;99.90
46676;DHT22;32412;51.478;5.694;2022-09-29T07:33:31;7.80;99.90
46676;DHT22;32412;51.478;5.694;2022-09-29T07:35:59;8.00;99.90
46676;DHT22;32412;51.478;5.694;2022-09-29T07:38:29;8.00;99.90
46676;DHT22;32412;51.478;5.694;2022-09-29T07:41:03;8.20;99.90
46676;DHT22;32412;51.478;5.694;2022-09-29T07:43:29;8.30;99.90
46676;DHT22;32412;51.478;5.694;2022-09-29T07:45:55;8.40;99.90
46676;DHT22;32412;51.478;5.694;2022-09-29T07:48:21;8.40;99.90
46676;DHT22;32412;51.478;5.694;2022-09-29T07:50:47;8.60;99.90
46676;DHT22;32412;51.478;5.694;2022-09-29T07:53:13;8.70;99.90
46676;DHT22;32412;51.478;5.694;2022-09-29T07:55:39;8.90;99.90
46676;DHT22;32412;51.478;5.694;2022-09-29T07:58:08;9.10;99.90
46676;DHT22;32412;51.478;5.694;2022-09-29T08:00:34;9.20;99.90
46676;DHT22;32412;51.478;5.694;2022-09-29T08:03:03;9.30;99.90
46676;DHT22;32412;51.478;5.694;2022-09-29T08:05:30;9.40;99.90
46676;DHT22;32412;51.478;5.694;2022-09-29T08:08:25;9.50;99.90
46676;DHT22;32412;51.478;5.694;2022-09-29T08:11:23;9.60;99.90
46676;DHT22;32412;51.478;5.694;2022-09-29T08:14:13;9.80;99.90
46676;DHT22;32412;51.478;5.694;2022-09-29T08:20:44;10.00;99.90
46676;DHT22;32412;51.478;5.694;2022-09-29T08:23:53;10.10;99.90
46676;DHT22;32412;51.478;5.694;2022-09-29T08:36:37;10.60;99.90
46676;DHT22;32412;51.478;5.694;2022-09-29T08:57:27;11.40;99.90
46676;DHT22;32412;51.478;5.694;2022-09-29T08:59:58;11.50;99.90
46676;DHT22;32412;51.478;5.694;2022-09-29T09:07:59;11.80;99.90
46676;DHT22;32412;51.478;5.694;2022-09-29T09:10:37;11.90;99.90
46676;DHT22;32412;51.478;5.694;2022-09-29T09:21:18;12.80;99.90
46676;DHT22;32412;51.478;5.694;2022-09-29T09:23:58;13.20;99.90
46676;DHT22;32412;51.478;5.694;2022-09-29T09:26:37;13.60;99.90
46676;DHT22;32412;51.478;5.694;2022-09-29T09:32:10;14.70;99.90
46676;DHT22;32412;51.478;5.694;2022-09-29T09:34:43;15.30;99.90
46676;DHT22;32412;51.478;5.694;2022-09-29T09:37:20;15.80;99.90
46676;DHT22;32412;51.478;5.694;2022-09-29T09:40:00;16.50;99.90
46676;DHT22;32412;51.478;5.694;2022-09-29T09:42:34;17.00;99.90
46676;DHT22;32412;51.478;5.694;2022-09-29T09:45:12;18.00;99.90
46676;DHT22;32412;51.478;5.694;2022-09-29T09:47:49;18.70;99.90
46676;DHT22;32412;51.478;5.694;2022-09-29T09:50:18;19.10;99.90
46676;DHT22;32412;51.478;5.694;2022-09-29T09:52:48;19.50;99.90
46676;DHT22;32412;51.478;5.694;2022-09-29T09:55:18;20.00;99.90
46676;DHT22;32412;51.478;5.694;2022-09-29T09:57:57;20.30;99.90
46676;DHT22;32412;51.478;5.694;2022-09-29T10:00:29;20.80;99.90
46676;DHT22;32412;51.478;5.694;2022-09-29T10:03:01;20.70;99.90
46676;DHT22;32412;51.478;5.694;2022-09-29T10:08:03;20.90;99.90
46676;DHT22;32412;51.478;5.694;2022-09-29T10:10:30;20.90;99.90
46676;DHT22;32412;51.478;5.694;2022-09-29T10:13:03;20.80;99.90
46676;DHT22;32412;51.478;5.694;2022-09-29T10:20:49;20.70;99.90
46676;DHT22;32412;51.478;5.694;2022-09-29T10:23:34;21.30;99.90
46676;DHT22;32412;51.478;5.694;2022-09-29T10:26:14;21.90;99.70
46676;DHT22;32412;51.478;5.694;2022-09-29T10:28:46;22.60;99.10
46676;DHT22;32412;51.478;5.694;2022-09-29T10:31:23;22.80;98.90
46676;DHT22;32412;51.478;5.694;2022-09-29T10:34:12;21.90;99.60
46676;DHT22;32412;51.478;5.694;2022-09-29T10:36:55;19.90;99.90
46676;DHT22;32412;51.478;5.694;2022-09-29T10:39:33;19.00;99.90
46676;DHT22;32412;51.478;5.694;2022-09-29T10:42:02;18.80;99.90
46676;DHT22;32412;51.478;5.694;2022-09-29T10:44:31;17.70;99.90
46676;DHT22;32412;51.478;5.694;2022-09-29T10:46:57;16.70;99.90
46676;DHT22;32412;51.478;5.694;2022-09-29T10:49:25;16.00;99.90
46676;DHT22;32412;51.478;5.694;2022-09-29T10:52:04;15.30;99.90
46676;DHT22;32412;51.478;5.694;2022-09-29T10:54:34;14.90;99.90
46676;DHT22;32412;51.478;5.694;2022-09-29T10:57:14;14.70;99.90
46676;DHT22;32412;51.478;5.694;2022-09-29T10:59:47;14.40;99.90
46676;DHT22;32412;51.478;5.694;2022-09-29T11:02:24;14.30;99.90
46676;DHT22;32412;51.478;5.694;2022-09-29T11:04:53;14.20;99.90
46676;DHT22;32412;51.478;5.694;2022-09-29T11:07:20;14.10;99.90
46676;DHT22;32412;51.478;5.694;2022-09-29T11:09:46;14.10;99.90
46676;DHT22;32412;51.478;5.694;2022-09-29T11:12:32;14.00;99.90
46676;DHT22;32412;51.478;5.694;2022-09-29T11:15:00;14.00;99.90
46676;DHT22;32412;51.478;5.694;2022-09-29T11:17:39;14.10;99.90
46676;DHT22;32412;51.478;5.694;2022-09-29T11:20:13;14.10;99.90
46676;DHT22;32412;51.478;5.694;2022-09-29T11:25:13;17.30;99.90
46676;DHT22;32412;51.478;5.694;2022-09-29T11:30:13;21.80;99.90
46676;DHT22;32412;51.478;5.694;2022-09-29T11:44:14;25.80;95.90
46676;DHT22;32412;51.478;5.694;2022-09-29T11:52:33;25.20;95.30
46676;DHT22;32412;51.478;5.694;2022-09-29T11:55:16;25.40;94.60
46676;DHT22;32412;51.478;5.694;2022-09-29T12:08:34;26.30;93.20
46676;DHT22;32412;51.478;5.694;2022-09-29T12:11:15;26.10;93.10
46676;DHT22;32412;51.478;5.694;2022-09-29T12:16:23;26.50;92.30
46676;DHT22;32412;51.478;5.694;2022-09-29T12:18:55;26.50;92.10
46676;DHT22;32412;51.478;5.694;2022-09-29T12:21:32;26.50;91.90
46676;DHT22;32412;51.478;5.694;2022-09-29T12:24:01;25.90;92.20
46676;DHT22;32412;51.478;5.694;2022-09-29T12:26:30;25.20;93.10
46676;DHT22;32412;51.478;5.694;2022-09-29T12:31:40;22.40;95.30
46676;DHT22;32412;51.478;5.694;2022-09-29T12:34:13;20.90;96.70
46676;DHT22;32412;51.478;5.694;2022-09-29T12:42:20;18.90;99.40
46676;DHT22;32412;51.478;5.694;2022-09-29T12:50:21;17.60;99.90
46676;DHT22;32412;51.478;5.694;2022-09-29T12:53:13;17.40;99.90
46676;DHT22;32412;51.478;5.694;2022-09-29T12:55:57;17.20;99.90
46676;DHT22;32412;51.478;5.694;2022-09-29T12:58:31;16.90;99.90
46676;DHT22;32412;51.478;5.694;2022-09-29T13:01:30;16.70;99.90
46676;DHT22;32412;51.478;5.694;2022-09-29T13:12:26;16.00;99.90
46676;DHT22;32412;51.478;5.694;2022-09-29T13:20:48;15.70;99.90
46676;DHT22;32412;51.478;5.694;2022-09-29T13:26:37;15.60;99.90
46676;DHT22;32412;51.478;5.694;2022-09-29T13:29:20;15.50;99.90
46676;DHT22;32412;51.478;5.694;2022-09-29T13:31:48;15.40;99.90
46676;DHT22;32412;51.478;5.694;2022-09-29T13:34:36;15.40;99.90
46676;DHT22;32412;51.478;5.694;2022-09-29T13:37:14;15.20;99.90
46676;DHT22;32412;51.478;5.694;2022-09-29T13:39:53;15.20;99.90
46676;DHT22;32412;51.478;5.694;2022-09-29T13:58:36;15.20;99.90
46676;DHT22;32412;51.478;5.694;2022-09-29T14:01:08;15.10;99.90
46676;DHT22;32412;51.478;5.694;2022-09-29T14:03:39;15.00;99.90
46676;DHT22;32412;51.478;5.694;2022-09-29T14:09:02;14.90;99.90
46676;DHT22;32412;51.478;5.694;2022-09-29T14:14:04;14.80;99.90
46676;DHT22;32412;51.478;5.694;2022-09-29T14:16:37;14.70;99.90
46676;DHT22;32412;51.478;5.694;2022-09-29T14:21:57;14.70;99.90
46676;DHT22;32412;51.478;5.694;2022-09-29T14:27:29;14.90;99.90
46676;DHT22;32412;51.478;5.694;2022-09-29T14:35:36;15.00;99.90
46676;DHT22;32412;51.478;5.694;2022-09-29T14:40:33;15.00;99.90
46676;DHT22;32412;51.478;5.694;2022-09-29T14:43:13;15.10;99.90
46676;DHT22;32412;51.478;5.694;2022-09-29T14:57:59;15.00;99.90
46676;DHT22;32412;51.478;5.694;2022-09-29T15:00:46;15.00;99.90
46676;DHT22;32412;51.478;5.694;2022-09-29T15:03:27;15.00;99.90
46676;DHT22;32412;51.478;5.694;2022-09-29T15:06:23;15.00;99.90
46676;DHT22;32412;51.478;5.694;2022-09-29T15:11:35;15.00;99.90
46676;DHT22;32412;51.478;5.694;2022-09-29T15:17:54;15.00;99.90
46676;DHT22;32412;51.478;5.694;2022-09-29T15:20:22;15.00;99.90
46676;DHT22;32412;51.478;5.694;2022-09-29T15:23:10;14.90;99.90
46676;DHT22;32412;51.478;5.694;2022-09-29T15:25:42;14.90;99.90
46676;DHT22;32412;51.478;5.694;2022-09-29T15:28:18;14.90;99.90
46676;DHT22;32412;51.478;5.694;2022-09-29T15:30:49;14.90;99.90
46676;DHT22;32412;51.478;5.694;2022-09-29T15:33:27;15.00;99.90
46676;DHT22;32412;51.478;5.694;2022-09-29T15:36:07;15.00;99.90
46676;DHT22;32412;51.478;5.694;2022-09-29T15:38:41;15.00;99.90
46676;DHT22;32412;51.478;5.694;2022-09-29T15:49:10;15.70;99.90
46676;DHT22;32412;51.478;5.694;2022-09-29T15:51:37;15.70;99.90
46676;DHT22;32412;51.478;5.694;2022-09-29T15:54:03;15.70;99.90
46676;DHT22;32412;51.478;5.694;2022-09-29T15:56:32;15.70;99.90
46676;DHT22;32412;51.478;5.694;2022-09-29T15:59:18;15.60;99.90
46676;DHT22;32412;51.478;5.694;2022-09-29T16:01:44;15.60;99.90
46676;DHT22;32412;51.478;5.694;2022-09-29T16:04:10;15.60;99.90
46676;DHT22;32412;51.478;5.694;2022-09-29T16:06:35;15.60;99.90
46676;DHT22;32412;51.478;5.694;2022-09-29T16:09:04;15.60;99.90
46676;DHT22;32412;51.478;5.694;2022-09-29T16:11:33;15.80;99.90
46676;DHT22;32412;51.478;5.694;2022-09-29T16:14:10;15.90;99.90
46676;DHT22;32412;51.478;5.694;2022-09-29T16:16:45;16.00;99.90
46676;DHT22;32412;51.478;5.694;2022-09-29T16:19:31;16.70;99.90
46676;DHT22;32412;51.478;5.694;2022-09-29T16:22:03;17.20;99.90
46676;DHT22;32412;51.478;5.694;2022-09-29T16:24:35;17.20;99.90
46676;DHT22;32412;51.478;5.694;2022-09-29T16:27:02;16.90;99.90
46676;DHT22;32412;51.478;5.694;2022-09-29T16:29:33;16.40;99.90
46676;DHT22;32412;51.478;5.694;2022-09-29T16:38:46;15.20;99.90
46676;DHT22;32412;51.478;5.694;2022-09-29T16:49:47;14.10;99.90
46676;DHT22;32412;51.478;5.694;2022-09-29T16:52:24;13.90;99.90
46676;DHT22;32412;51.478;5.694;2022-09-29T16:54:52;13.70;99.90
46676;DHT22;32412;51.478;5.694;2022-09-29T16:57:29;13.40;99.90
46676;DHT22;32412;51.478;5.694;2022-09-29T16:59:57;13.30;99.90
46676;DHT22;32412;51.478;5.694;2022-09-29T17:02:24;13.10;99.90
46676;DHT22;32412;51.478;5.694;2022-09-29T17:04:51;13.00;99.90
46676;DHT22;32412;51.478;5.694;2022-09-29T17:07:19;12.90;99.90
46676;DHT22;32412;51.478;5.694;2022-09-29T17:09:49;12.70;99.90
46676;DHT22;32412;51.478;5.694;2022-09-29T17:12:16;12.60;99.90
46676;DHT22;32412;51.478;5.694;2022-09-29T17:14:42;12.40;99.90
46676;DHT22;32412;51.478;5.694;2022-09-29T17:17:20;12.30;99.90
46676;DHT22;32412;51.478;5.694;2022-09-29T17:19:50;12.20;99.90
46676;DHT22;32412;51.478;5.694;2022-09-29T17:22:24;12.10;99.90
46676;DHT22;32412;51.478;5.694;2022-09-29T17:24:50;12.00;99.90
46676;DHT22;32412;51.478;5.694;2022-09-29T17:27:16;11.90;99.90
46676;DHT22;32412;51.478;5.694;2022-09-29T17:30:03;11.70;99.90
46676;DHT22;32412;51.478;5.694;2022-09-29T17:32:28;11.60;99.90
46676;DHT22;32412;51.478;5.694;2022-09-29T17:34:54;11.50;99.90
46676;DHT22;32412;51.478;5.694;2022-09-29T17:37:20;11.40;99.90
46676;DHT22;32412;51.478;5.694;2022-09-29T17:39:45;11.30;99.90
46676;DHT22;32412;51.478;5.694;2022-09-29T17:42:11;11.20;99.90
46676;DHT22;32412;51.478;5.694;2022-09-29T17:44:38;11.10;99.90
46676;DHT22;32412;51.478;5.694;2022-09-29T17:47:11;11.00;99.90
46676;DHT22;32412;51.478;5.694;2022-09-29T17:49:38;10.90;99.90
46676;DHT22;32412;51.478;5.694;2022-09-29T17:52:05;10.90;99.90
46676;DHT22;32412;51.478;5.694;2022-09-29T17:54:33;10.70;99.90
46676;DHT22;32412;51.478;5.694;2022-09-29T17:57:00;10.70;99.90
46676;DHT22;32412;51.478;5.694;2022-09-29T17:59:26;10.60;99.90
46676;DHT22;32412;51.478;5.694;2022-09-29T18:01:51;10.50;99.90
46676;DHT22;32412;51.478;5.694;2022-09-29T18:04:18;10.50;99.90
46676;DHT22;32412;51.478;5.694;2022-09-29T18:06:43;10.50;99.90
46676;DHT22;32412;51.478;5.694;2022-09-29T18:09:14;10.40;99.90
46676;DHT22;32412;51.478;5.694;2022-09-29T18:11:41;10.30;99.90
46676;DHT22;32412;51.478;5.694;2022-09-29T18:14:06;10.20;99.90
46676;DHT22;32412;51.478;5.694;2022-09-29T18:16:32;10.10;99.90
46676;DHT22;32412;51.478;5.694;2022-09-29T18:18:58;10.00;99.90
46676;DHT22;32412;51.478;5.694;2022-09-29T18:21:23;10.00;99.90
46676;DHT22;32412;51.478;5.694;2022-09-29T18:23:49;9.90;99.90
46676;DHT22;32412;51.478;5.694;2022-09-29T18:26:15;9.90;99.90
46676;DHT22;32412;51.478;5.694;2022-09-29T18:28:41;9.90;99.90
46676;DHT22;32412;51.478;5.694;2022-09-29T18:31:24;9.80;99.90
46676;DHT22;32412;51.478;5.694;2022-09-29T18:33:51;9.80;99.90
46676;DHT22;32412;51.478;5.694;2022-09-29T18:36:17;9.70;99.90
46676;DHT22;32412;51.478;5.694;2022-09-29T18:38:42;9.70;99.90
46676;DHT22;32412;51.478;5.694;2022-09-29T18:41:14;9.70;99.90
46676;DHT22;32412;51.478;5.694;2022-09-29T18:43:41;9.60;99.90
46676;DHT22;32412;51.478;5.694;2022-09-29T18:46:07;9.50;99.90
46676;DHT22;32412;51.478;5.694;2022-09-29T18:48:33;9.50;99.90
46676;DHT22;32412;51.478;5.694;2022-09-29T18:50:58;9.50;99.90
46676;DHT22;32412;51.478;5.694;2022-09-29T18:53:24;9.50;99.90
46676;DHT22;32412;51.478;5.694;2022-09-29T18:55:55;9.40;99.90
46676;DHT22;32412;51.478;5.694;2022-09-29T18:58:22;9.40;99.90
46676;DHT22;32412;51.478;5.694;2022-09-29T19:00:50;9.30;99.90
46676;DHT22;32412;51.478;5.694;2022-09-29T19:03:18;9.30;99.90
46676;DHT22;32412;51.478;5.694;2022-09-29T19:05:44;9.20;99.90
46676;DHT22;32412;51.478;5.694;2022-09-29T19:08:12;9.20;99.90
46676;DHT22;32412;51.478;5.694;2022-09-29T19:10:39;9.10;99.90
46676;DHT22;32412;51.478;5.694;2022-09-29T19:13:09;9.10;99.90
46676;DHT22;32412;51.478;5.694;2022-09-29T19:15:38;9.00;99.90
46676;DHT22;32412;51.478;5.694;2022-09-29T19:18:04;9.00;99.90
46676;DHT22;32412;51.478;5.694;2022-09-29T19:20:32;9.00;99.90
46676;DHT22;32412;51.478;5.694;2022-09-29T19:22:58;8.90;99.90
46676;DHT22;32412;51.478;5.694;2022-09-29T19:25:38;8.80;99.90
46676;DHT22;32412;51.478;5.694;2022-09-29T19:28:05;8.70;99.90
46676;DHT22;32412;51.478;5.694;2022-09-29T19:30:39;8.70;99.90
46676;DHT22;32412;51.478;5.694;2022-09-29T19:33:07;8.70;99.90
46676;DHT22;32412;51.478;5.694;2022-09-29T19:35:33;8.70;99.90
46676;DHT22;32412;51.478;5.694;2022-09-29T19:37:59;8.60;99.90
46676;DHT22;32412;51.478;5.694;2022-09-29T19:40:29;8.60;99.90
46676;DHT22;32412;51.478;5.694;2022-09-29T19:42:54;8.50;99.90
46676;DHT22;32412;51.478;5.694;2022-09-29T19:45:23;8.50;99.90
46676;DHT22;32412;51.478;5.694;2022-09-29T19:47:49;8.40;99.90
46676;DHT22;32412;51.478;5.694;2022-09-29T19:50:19;8.40;99.90